createdAt,value
2023-04-21T00:00:09.725Z,97122.50
2023-04-21T00:02:42.376Z,97121.56
2023-04-21T00:05:13.133Z,97125.28
2023-04-21T00:07:42.385Z,97128.44
2023-04-21T00:10:12.762Z,97121.00
2023-04-21T00:12:41.977Z,97126.84
2023-04-21T00:15:11.155Z,97122.34
2023-04-21T00:17:40.214Z,97134.81
2023-04-21T00:20:11.133Z,97135.19
2023-04-21T00:22:39.932Z,97137.66
2023-04-21T00:25:09.115Z,97138.28
2023-04-21T00:27:38.107Z,97137.63
2023-04-21T00:30:07.577Z,97142.44
2023-04-21T00:32:39.359Z,97139.75
2023-04-21T00:35:09.204Z,97141.88
2023-04-21T00:37:38.515Z,97137.16
2023-04-21T00:40:08.142Z,97137.69
2023-04-21T00:42:37.084Z,97132.44
2023-04-21T00:45:06.479Z,97140.63
2023-04-21T00:47:35.610Z,97140.91
2023-04-21T00:50:05.147Z,97144.31
2023-04-21T00:52:35.869Z,97137.19
2023-04-21T00:55:05.645Z,97133.78
2023-04-21T00:57:36.600Z,97136.44
2023-04-21T01:00:09.572Z,97137.97
2023-04-21T01:02:40.843Z,97138.44
2023-04-21T01:05:10.609Z,97135.50
2023-04-21T01:07:40.966Z,97128.94
2023-04-21T01:10:10.192Z,97131.09
2023-04-21T01:12:46.820Z,97137.50
2023-04-21T01:15:17.899Z,97140.44
2023-04-21T01:17:46.777Z,97150.16
2023-04-21T01:20:16.533Z,97142.94
2023-04-21T01:22:45.890Z,97141.88
2023-04-21T01:25:14.703Z,97142.66
2023-04-21T01:27:43.477Z,97144.03
2023-04-21T01:30:12.480Z,97143.75
2023-04-21T01:32:41.518Z,97146.91
2023-04-21T01:35:10.836Z,97144.75
2023-04-21T01:37:40.967Z,97136.28
2023-04-21T01:40:11.255Z,97139.47
2023-04-21T01:42:43.908Z,97138.94
2023-04-21T01:45:13.772Z,97147.66
2023-04-21T01:47:42.653Z,97147.97
2023-04-21T01:50:11.923Z,97148.06
2023-04-21T01:52:43.975Z,97156.56
2023-04-21T01:55:12.809Z,97148.56
2023-04-21T01:57:42.253Z,97151.78
2023-04-21T02:00:12.731Z,97145.38
2023-04-21T02:02:44.525Z,97152.75
2023-04-21T02:05:15.540Z,97151.03
2023-04-21T02:07:44.379Z,97140.78
2023-04-21T02:10:13.600Z,97146.47
2023-04-21T02:12:45.277Z,97140.66
2023-04-21T02:15:14.121Z,97149.28
2023-04-21T02:18:02.860Z,97157.22
2023-04-21T02:20:31.832Z,97151.94
2023-04-21T02:23:00.683Z,97149.16
2023-04-21T02:25:30.677Z,97154.97
2023-04-21T02:27:59.518Z,97157.63
2023-04-21T02:30:29.344Z,97158.94
2023-04-21T02:32:58.504Z,97147.63
2023-04-21T02:35:27.961Z,97148.84
2023-04-21T02:37:56.743Z,97152.47
2023-04-21T02:40:25.516Z,97164.84
2023-04-21T02:42:54.459Z,97164.00
2023-04-21T02:45:23.300Z,97157.00
2023-04-21T02:47:52.926Z,97168.13
2023-04-21T02:50:21.976Z,97170.13
2023-04-21T02:52:50.812Z,97175.84
2023-04-21T02:55:19.640Z,97183.06
2023-04-21T02:57:49.040Z,97182.22
2023-04-21T03:00:18.848Z,97183.78
2023-04-21T03:02:48.048Z,97183.53
2023-04-21T03:05:18.388Z,97179.34
2023-04-21T03:07:47.833Z,97176.16
2023-04-21T03:10:16.588Z,97179.50
2023-04-21T03:12:45.327Z,97177.31
2023-04-21T03:15:14.934Z,97160.91
2023-04-21T03:17:44.693Z,97180.53
2023-04-21T03:20:13.640Z,97177.56
2023-04-21T03:22:42.628Z,97178.06
2023-04-21T03:25:12.524Z,97170.00
2023-04-21T03:27:41.449Z,97166.06
2023-04-21T03:30:11.220Z,97167.66
2023-04-21T03:32:40.059Z,97162.66
2023-04-21T03:35:09.004Z,97166.28
2023-04-21T03:37:37.928Z,97153.78
2023-04-21T03:40:07.818Z,97147.31
2023-04-21T03:42:36.913Z,97157.38
2023-04-21T03:45:08.504Z,97153.69
2023-04-21T03:47:38.141Z,97163.56
2023-04-21T03:50:07.597Z,97153.47
2023-04-21T03:52:36.520Z,97134.06
2023-04-21T03:55:05.916Z,97144.88
2023-04-21T03:57:34.710Z,97151.34
2023-04-21T04:00:05.943Z,97154.22
2023-04-21T04:02:44.431Z,97159.88
2023-04-21T04:05:13.637Z,97153.91
2023-04-21T04:07:42.699Z,97153.13
2023-04-21T04:10:12.504Z,97143.19
2023-04-21T04:12:41.453Z,97135.13
2023-04-21T04:15:10.553Z,97132.06
2023-04-21T04:17:39.498Z,97138.72
2023-04-21T04:20:09.161Z,97143.03
2023-04-21T04:22:38.008Z,97144.88
2023-04-21T04:25:07.019Z,97152.56
2023-04-21T04:27:36.249Z,97141.28
2023-04-21T04:30:06.293Z,97152.84
2023-04-21T04:32:35.232Z,97152.06
2023-04-21T04:35:04.572Z,97153.13
2023-04-21T04:37:35.105Z,97137.69
2023-04-21T04:40:10.599Z,97131.38
2023-04-21T04:42:40.723Z,97126.56
2023-04-21T04:45:10.161Z,97128.94
2023-04-21T04:47:39.114Z,97122.41
2023-04-21T04:50:08.345Z,97126.88
2023-04-21T04:52:37.401Z,97119.94
2023-04-21T04:55:06.607Z,97120.91
2023-04-21T04:57:35.594Z,97138.84
2023-04-21T05:00:09.026Z,97123.13
2023-04-21T05:02:39.628Z,97131.34
2023-04-21T05:05:08.922Z,97134.69
2023-04-21T05:07:37.921Z,97118.00
2023-04-21T05:10:07.086Z,97132.78
2023-04-21T05:12:35.963Z,97130.97
2023-04-21T05:15:06.327Z,97125.91
2023-04-21T05:17:35.569Z,97117.19
2023-04-21T05:20:08.763Z,97121.47
2023-04-21T05:22:41.685Z,97116.00
2023-04-21T05:25:18.236Z,97118.78
2023-04-21T05:27:47.098Z,97106.03
2023-04-21T05:30:15.974Z,97097.84
2023-04-21T05:32:44.938Z,97099.47
2023-04-21T05:35:13.837Z,97101.94
2023-04-21T05:37:42.691Z,97088.28
2023-04-21T05:40:11.908Z,97099.31
2023-04-21T05:42:40.879Z,97093.38
2023-04-21T05:45:09.752Z,97103.66
2023-04-21T05:47:39.639Z,97101.78
2023-04-21T05:50:09.331Z,97093.41
2023-04-21T05:52:38.574Z,97092.75
2023-04-21T05:55:07.925Z,97091.72
2023-04-21T05:57:36.943Z,97077.41
2023-04-21T06:00:07.846Z,97082.28
2023-04-21T06:02:37.230Z,97079.88
2023-04-21T06:05:07.176Z,97085.38
2023-04-21T06:07:37.955Z,97088.19
2023-04-21T06:10:07.791Z,97095.03
2023-04-21T06:12:36.692Z,97092.13
2023-04-21T06:15:06.400Z,97080.88
2023-04-21T06:17:35.218Z,97081.69
2023-04-21T06:20:04.972Z,97073.44
2023-04-21T06:22:34.236Z,97068.34
2023-04-21T06:25:03.066Z,97084.09
2023-04-21T06:27:32.339Z,97073.72
2023-04-21T06:30:01.136Z,97082.25
2023-04-21T06:32:33.467Z,97075.91
2023-04-21T06:35:02.673Z,97074.38
2023-04-21T06:37:33.675Z,97081.00
2023-04-21T06:40:02.607Z,97076.78
2023-04-21T06:42:32.685Z,97067.50
2023-04-21T06:45:01.614Z,97070.91
2023-04-21T06:47:34.685Z,97070.97
2023-04-21T06:50:04.066Z,97059.19
2023-04-21T06:52:33.129Z,97060.94
2023-04-21T06:55:02.112Z,97056.00
2023-04-21T06:57:32.662Z,97055.78
2023-04-21T07:00:01.579Z,97043.50
2023-04-21T07:02:34.951Z,97059.84
2023-04-21T07:05:04.646Z,97061.53
2023-04-21T07:07:34.137Z,97066.00
2023-04-21T07:10:03.212Z,97066.97
2023-04-21T07:12:33.013Z,97064.16
2023-04-21T07:15:02.029Z,97061.50
2023-04-21T07:17:33.239Z,97057.00
2023-04-21T07:20:02.374Z,97044.03
2023-04-21T07:22:32.137Z,97050.53
2023-04-21T07:25:01.146Z,97045.13
2023-04-21T07:27:30.681Z,97055.72
2023-04-21T07:29:59.602Z,97039.38
2023-04-21T07:32:28.497Z,97039.31
2023-04-21T07:34:57.489Z,97036.06
2023-04-21T07:37:27.702Z,97042.47
2023-04-21T07:39:56.558Z,97053.84
2023-04-21T07:42:27.375Z,97039.84
2023-04-21T07:44:56.773Z,97054.47
2023-04-21T07:47:25.799Z,97043.56
2023-04-21T07:49:54.713Z,97039.97
2023-04-21T07:52:23.815Z,97034.44
2023-04-21T07:54:52.809Z,97031.47
2023-04-21T07:57:21.790Z,97045.63
2023-04-21T07:59:50.811Z,97037.88
2023-04-21T08:02:20.870Z,97024.38
2023-04-21T08:04:50.295Z,97037.69
2023-04-21T08:07:19.164Z,97023.59
2023-04-21T08:09:48.055Z,97031.97
2023-04-21T08:12:17.016Z,97033.28
2023-04-21T08:14:46.038Z,97035.22
2023-04-21T08:17:15.159Z,97040.16
2023-04-21T08:19:44.251Z,97043.19
2023-04-21T08:22:13.106Z,97031.13
2023-04-21T08:24:41.875Z,97041.53
2023-04-21T08:27:10.876Z,97036.34
2023-04-21T08:29:39.684Z,97027.44
2023-04-21T08:32:08.804Z,97032.91
2023-04-21T08:34:37.869Z,97035.56
2023-04-21T08:37:06.706Z,97022.31
2023-04-21T08:39:35.620Z,97030.41
2023-04-21T08:42:05.713Z,97037.91
2023-04-21T08:44:34.528Z,97041.03
2023-04-21T08:47:06.952Z,97032.34
2023-04-21T08:49:38.036Z,97027.16
2023-04-21T08:52:07.255Z,97024.69
2023-04-21T08:54:39.686Z,97043.03
2023-04-21T08:57:15.346Z,97024.03
2023-04-21T08:59:46.088Z,97013.28
2023-04-21T09:02:20.597Z,97033.78
2023-04-21T09:04:53.073Z,97028.75
2023-04-21T09:07:34.503Z,97028.72
2023-04-21T09:10:05.304Z,97023.41
2023-04-21T09:12:35.339Z,97028.88
2023-04-21T09:15:07.479Z,97040.19
2023-04-21T09:17:37.566Z,97035.31
2023-04-21T09:20:24.955Z,97035.94
2023-04-21T09:22:54.120Z,97030.50
2023-04-21T09:25:23.460Z,97033.53
2023-04-21T09:27:55.132Z,97034.53
2023-04-21T09:30:24.033Z,97044.97
2023-04-21T09:32:58.749Z,97035.31
2023-04-21T09:35:40.099Z,97044.59
2023-04-21T09:38:13.574Z,97037.53
2023-04-21T09:40:42.646Z,97043.00
2023-04-21T09:43:12.395Z,97045.22
2023-04-21T09:45:41.831Z,97038.13
2023-04-21T09:48:12.483Z,97044.47
2023-04-21T09:51:20.103Z,97049.22
2023-04-21T09:53:34.014Z,97048.69
2023-04-21T09:56:05.075Z,97050.34
2023-04-21T09:58:54.190Z,97044.00
2023-04-21T10:01:28.761Z,97042.16
2023-04-21T10:04:00.104Z,97049.34
2023-04-21T10:06:29.494Z,97049.16
2023-04-21T10:08:59.582Z,97045.19
2023-04-21T10:11:28.660Z,97043.28
2023-04-21T10:13:57.688Z,97041.13
2023-04-21T10:16:27.117Z,97039.09
2023-04-21T10:18:56.196Z,97040.25
2023-04-21T10:21:25.210Z,97041.69
2023-04-21T10:23:55.089Z,97037.28
2023-04-21T10:26:37.027Z,97041.31
2023-04-21T10:29:07.696Z,97038.56
2023-04-21T10:31:48.609Z,97042.16
2023-04-21T10:34:18.930Z,97033.88
2023-04-21T10:36:53.645Z,97035.00
2023-04-21T10:39:36.431Z,97032.88
2023-04-21T10:42:14.732Z,97033.59
2023-04-21T10:44:59.003Z,97033.25
2023-04-21T10:47:41.878Z,97032.59
2023-04-21T10:50:30.907Z,97031.47
2023-04-21T10:53:10.139Z,97037.78
2023-04-21T10:55:40.324Z,97029.94
2023-04-21T10:58:10.430Z,97030.34
2023-04-21T11:00:40.776Z,97025.38
2023-04-21T11:03:10.146Z,97029.22
2023-04-21T11:05:41.330Z,97036.78
2023-04-21T11:08:12.015Z,97033.59
2023-04-21T11:10:56.473Z,97041.88
2023-04-21T11:13:28.161Z,97038.53
2023-04-21T11:16:08.912Z,97029.81
2023-04-21T11:18:42.867Z,97042.72
2023-04-21T11:21:23.588Z,97041.13
2023-04-21T11:23:57.399Z,97034.06
2023-04-21T11:26:38.827Z,97048.13
2023-04-21T11:29:10.426Z,97049.88
2023-04-21T11:31:41.289Z,97046.44
2023-04-21T11:34:10.208Z,97051.69
2023-04-21T11:36:41.595Z,97052.44
2023-04-21T11:39:12.639Z,97050.00
2023-04-21T11:41:44.008Z,97052.72
2023-04-21T11:44:14.054Z,97050.84
2023-04-21T11:46:47.471Z,97052.47
2023-04-21T11:49:20.209Z,97058.06
2023-04-21T11:51:51.367Z,97059.09
2023-04-21T11:54:22.589Z,97058.31
2023-04-21T11:56:52.815Z,97067.00
2023-04-21T11:59:26.317Z,97069.56
2023-04-21T12:01:56.723Z,97078.50
2023-04-21T12:04:26.593Z,97071.75
2023-04-21T12:07:00.071Z,97078.75
2023-04-21T12:09:30.390Z,97083.41
2023-04-21T12:12:02.377Z,97084.00
2023-04-21T12:14:35.386Z,97079.06
2023-04-21T12:17:07.781Z,97087.59
2023-04-21T12:19:42.493Z,97086.00
2023-04-21T12:22:13.762Z,97084.72
2023-04-21T12:24:44.688Z,97084.47
2023-04-21T12:27:14.115Z,97087.38
2023-04-21T12:29:43.280Z,97094.00
2023-04-21T12:32:12.285Z,97093.19
2023-04-21T12:34:41.278Z,97097.44
2023-04-21T12:37:10.261Z,97093.72
2023-04-21T12:39:39.071Z,97087.91
2023-04-21T12:42:07.998Z,97097.97
2023-04-21T12:44:37.092Z,97101.19
2023-04-21T12:47:06.069Z,97099.56
2023-04-21T12:49:34.993Z,97100.13
2023-04-21T12:52:06.200Z,97108.31
2023-04-21T12:54:35.205Z,97110.94
2023-04-21T12:57:04.122Z,97108.28
2023-04-21T12:59:34.836Z,97107.22
2023-04-21T13:02:04.407Z,97117.56
2023-04-21T13:04:34.187Z,97117.03
2023-04-21T13:07:03.259Z,97115.97
2023-04-21T13:09:33.180Z,97122.34
2023-04-21T13:12:02.631Z,97129.22
2023-04-21T13:14:32.315Z,97131.06
2023-04-21T13:17:02.580Z,97128.41
2023-04-21T13:19:31.936Z,97139.28
2023-04-21T13:22:01.355Z,97138.50
2023-04-21T13:24:30.461Z,97142.22
2023-04-21T13:26:59.992Z,97144.88
2023-04-21T13:29:34.700Z,97145.69
2023-04-21T13:32:06.780Z,97144.88
2023-04-21T13:34:36.924Z,97146.97
2023-04-21T13:37:06.580Z,97153.09
2023-04-21T13:39:35.501Z,97141.94
2023-04-21T13:42:04.599Z,97149.13
2023-04-21T13:44:33.964Z,97151.53
2023-04-21T13:47:03.124Z,97148.09
2023-04-21T13:49:32.611Z,97145.72
2023-04-21T13:52:01.777Z,97154.19
2023-04-21T13:54:31.223Z,97158.69
2023-04-21T13:57:01.866Z,97151.50
2023-04-21T13:59:31.188Z,97159.44
2023-04-21T14:02:01.267Z,97151.44
2023-04-21T14:04:30.538Z,97162.03
2023-04-21T14:06:59.537Z,97162.75
2023-04-21T14:09:28.911Z,97157.97
2023-04-21T14:11:57.789Z,97156.09
2023-04-21T14:14:37.760Z,97158.19
2023-04-21T14:17:08.692Z,97160.25
2023-04-21T14:19:37.554Z,97156.50
2023-04-21T14:22:06.475Z,97159.91
2023-04-21T14:24:35.263Z,97172.03
2023-04-21T14:27:04.378Z,97174.09
2023-04-21T14:29:33.689Z,97170.09
2023-04-21T14:32:02.807Z,97163.75
2023-04-21T14:34:31.862Z,97169.78
2023-04-21T14:37:01.267Z,97167.94
2023-04-21T14:39:30.246Z,97166.03
2023-04-21T14:41:59.106Z,97172.09
2023-04-21T14:44:28.003Z,97171.25
2023-04-21T14:47:08.489Z,97165.69
2023-04-21T14:49:39.971Z,97167.50
2023-04-21T14:52:09.062Z,97167.75
2023-04-21T14:54:38.082Z,97171.94
2023-04-21T14:57:20.061Z,97170.91
2023-04-21T14:59:51.987Z,97174.63
2023-04-21T15:02:23.053Z,97172.59
2023-04-21T15:04:52.477Z,97169.78
2023-04-21T15:07:23.974Z,97169.09
2023-04-21T15:09:55.875Z,97181.59
2023-04-21T15:12:27.017Z,97171.88
2023-04-21T15:14:57.387Z,97180.63
2023-04-21T15:17:27.188Z,97174.78
2023-04-21T15:19:56.157Z,97177.91
2023-04-21T15:22:25.644Z,97176.03
2023-04-21T15:24:54.859Z,97178.31
2023-04-21T15:27:23.852Z,97176.72
2023-04-21T15:29:54.593Z,97166.94
2023-04-21T15:32:23.568Z,97182.22
2023-04-21T15:34:53.259Z,97178.03
2023-04-21T15:37:24.958Z,97175.91
2023-04-21T15:39:54.458Z,97175.94
2023-04-21T15:42:24.975Z,97180.19
2023-04-21T15:44:54.272Z,97180.19
2023-04-21T15:47:23.684Z,97177.28
2023-04-21T15:49:52.600Z,97174.38
2023-04-21T15:52:23.808Z,97176.50
2023-04-21T15:54:52.727Z,97182.09
2023-04-21T15:57:21.783Z,97183.44
2023-04-21T15:59:50.733Z,97177.88
2023-04-21T16:02:22.184Z,97178.66
2023-04-21T16:04:51.404Z,97176.31
2023-04-21T16:07:20.903Z,97171.31
2023-04-21T16:09:51.133Z,97171.09
2023-04-21T16:12:20.216Z,97165.81
2023-04-21T16:14:57.795Z,97162.69
2023-04-21T16:17:34.299Z,97154.47
2023-04-21T16:20:06.746Z,97174.31
2023-04-21T16:22:36.009Z,97169.75
2023-04-21T16:25:05.542Z,97173.44
2023-04-21T16:27:34.399Z,97170.50
2023-04-21T16:30:07.416Z,97173.97
2023-04-21T16:32:38.079Z,97168.69
2023-04-21T16:35:10.531Z,97158.88
2023-04-21T16:37:44.659Z,97168.13
2023-04-21T16:40:14.648Z,97169.69
2023-04-21T16:42:43.929Z,97176.53
2023-04-21T16:45:13.051Z,97171.75
2023-04-21T16:47:43.195Z,97177.56
2023-04-21T16:50:12.427Z,97162.44
2023-04-21T16:52:41.480Z,97171.13
2023-04-21T16:55:11.092Z,97169.78
2023-04-21T16:57:40.057Z,97174.31
2023-04-21T17:00:11.426Z,97182.06
2023-04-21T17:02:40.781Z,97177.66
2023-04-21T17:05:10.335Z,97177.69
2023-04-21T17:07:40.238Z,97180.94
2023-04-21T17:10:09.781Z,97190.75
2023-04-21T17:12:39.588Z,97197.91
2023-04-21T17:15:09.020Z,97198.19
2023-04-21T17:17:45.355Z,97197.13
2023-04-21T17:20:15.791Z,97195.81
2023-04-21T17:22:45.088Z,97186.28
2023-04-21T17:25:13.953Z,97189.19
2023-04-21T17:27:43.716Z,97192.41
2023-04-21T17:30:13.422Z,97181.00
2023-04-21T17:32:42.611Z,97185.97
2023-04-21T17:35:11.507Z,97189.91
2023-04-21T17:37:40.553Z,97186.66
2023-04-21T17:40:10.180Z,97181.31
2023-04-21T17:42:40.070Z,97187.63
2023-04-21T17:45:09.384Z,97182.56
2023-04-21T17:47:38.246Z,97185.16
2023-04-21T17:50:10.428Z,97182.75
2023-04-21T17:52:40.665Z,97184.56
2023-04-21T17:55:09.739Z,97189.28
2023-04-21T17:57:38.423Z,97186.59
2023-04-21T18:00:09.411Z,97177.59
2023-04-21T18:02:38.504Z,97178.34
2023-04-21T18:05:07.854Z,97179.66
2023-04-21T18:07:37.024Z,97180.53
2023-04-21T18:10:06.238Z,97180.38
2023-04-21T18:12:35.085Z,97178.06
2023-04-21T18:15:04.178Z,97172.59
2023-04-21T18:17:35.001Z,97178.47
2023-04-21T18:20:05.322Z,97179.84
2023-04-21T18:22:34.962Z,97165.91
2023-04-21T18:25:04.034Z,97174.94
2023-04-21T18:27:33.447Z,97172.84
2023-04-21T18:30:02.270Z,97167.81
2023-04-21T18:32:35.361Z,97174.72
2023-04-21T18:35:06.386Z,97175.53
2023-04-21T18:37:35.388Z,97171.31
2023-04-21T18:40:06.186Z,97173.94
2023-04-21T18:42:35.292Z,97170.44
2023-04-21T18:45:04.743Z,97171.22
2023-04-21T18:47:35.446Z,97170.97
2023-04-21T18:50:07.102Z,97177.28
2023-04-21T18:52:35.897Z,97170.66
2023-04-21T18:55:05.045Z,97167.72
2023-04-21T18:57:34.011Z,97169.31
2023-04-21T19:00:03.018Z,97170.41
2023-04-21T19:02:35.144Z,97168.81
2023-04-21T19:05:04.436Z,97165.63
2023-04-21T19:07:36.501Z,97168.78
2023-04-21T19:10:06.399Z,97158.72
2023-04-21T19:12:35.305Z,97163.75
2023-04-21T19:15:04.755Z,97158.47
2023-04-21T19:17:34.261Z,97161.09
2023-04-21T19:20:03.361Z,97156.03
2023-04-21T19:22:36.674Z,97158.94
2023-04-21T19:25:06.731Z,97164.19
2023-04-21T19:27:36.359Z,97158.91
2023-04-21T19:30:06.386Z,97158.63
2023-04-21T19:32:35.951Z,97159.19
2023-04-21T19:35:05.070Z,97163.88
2023-04-21T19:37:35.285Z,97156.44
2023-04-21T19:40:06.964Z,97156.41
2023-04-21T19:42:40.222Z,97161.69
2023-04-21T19:45:11.610Z,97156.41
2023-04-21T19:47:40.524Z,97159.31
2023-04-21T19:50:10.457Z,97147.69
2023-04-21T19:52:39.276Z,97145.63
2023-04-21T19:55:08.357Z,97153.78
2023-04-21T19:57:38.036Z,97149.22
2023-04-21T20:00:09.966Z,97145.19
2023-04-21T20:02:42.905Z,97146.72
2023-04-21T20:05:12.084Z,97156.41
2023-04-21T20:07:41.131Z,97157.91
2023-04-21T20:10:10.637Z,97145.44
2023-04-21T20:12:39.441Z,97150.78
2023-04-21T20:15:12.167Z,97150.25
2023-04-21T20:17:42.458Z,97153.41
2023-04-21T20:20:11.593Z,97150.78
2023-04-21T20:22:41.107Z,97155.25
2023-04-21T20:25:11.393Z,97164.22
2023-04-21T20:27:40.385Z,97157.13
2023-04-21T20:30:10.127Z,97156.09
2023-04-21T20:32:38.947Z,97160.91
2023-04-21T20:35:08.710Z,97153.16
2023-04-21T20:37:37.967Z,97148.09
2023-04-21T20:40:12.172Z,97142.53
2023-04-21T20:42:45.487Z,97147.81
2023-04-21T20:45:14.313Z,97144.66
2023-04-21T20:47:43.307Z,97138.91
2023-04-21T20:50:12.365Z,97141.59
2023-04-21T20:52:41.193Z,97142.94
2023-04-21T20:55:10.523Z,97142.41
2023-04-21T20:57:39.745Z,97146.16
2023-04-21T21:00:12.965Z,97145.13
2023-04-21T21:02:44.854Z,97141.44
2023-04-21T21:05:13.882Z,97151.00
2023-04-21T21:07:42.902Z,97136.47
2023-04-21T21:10:12.076Z,97139.69
2023-04-21T21:12:40.939Z,97141.31
2023-04-21T21:15:10.297Z,97135.75
2023-04-21T21:17:40.240Z,97136.50
2023-04-21T21:20:09.568Z,97127.69
2023-04-21T21:22:38.564Z,97134.53
2023-04-21T21:25:07.675Z,97133.78
2023-04-21T21:27:36.586Z,97127.97
2023-04-21T21:30:06.303Z,97134.06
2023-04-21T21:32:36.409Z,97128.53
2023-04-21T21:35:07.000Z,97141.75
2023-04-21T21:37:36.676Z,97134.63
2023-04-21T21:40:06.870Z,97130.94
2023-04-21T21:42:35.587Z,97133.34
2023-04-21T21:45:05.275Z,97131.72
2023-04-21T21:47:39.519Z,97131.72
2023-04-21T21:50:13.127Z,97137.81
2023-04-21T21:52:43.109Z,97138.88
2023-04-21T21:55:11.827Z,97140.69
2023-04-21T21:57:41.195Z,97134.63
2023-04-21T22:00:14.641Z,97130.69
2023-04-21T22:02:43.988Z,97138.09
2023-04-21T22:05:14.354Z,97139.97
2023-04-21T22:07:43.496Z,97137.06
2023-04-21T22:10:12.377Z,97137.31
2023-04-21T22:12:41.762Z,97141.78
2023-04-21T22:15:11.228Z,97136.16
2023-04-21T22:17:40.261Z,97135.84
2023-04-21T22:20:10.110Z,97135.06
2023-04-21T22:22:38.905Z,97136.66
2023-04-21T22:25:08.529Z,97132.16
2023-04-21T22:27:37.353Z,97138.84
2023-04-21T22:30:07.212Z,97143.38
2023-04-21T22:32:36.280Z,97145.50
2023-04-21T22:35:05.590Z,97147.41
2023-04-21T22:37:35.448Z,97137.97
2023-04-21T22:40:05.021Z,97140.94
2023-04-21T22:42:33.927Z,97132.00
2023-04-21T22:45:04.552Z,97131.50
2023-04-21T22:47:35.285Z,97129.13
2023-04-21T22:50:04.975Z,97128.84
2023-04-21T22:52:33.788Z,97139.47
2023-04-21T22:55:06.183Z,97142.88
2023-04-21T22:57:38.009Z,97143.44
2023-04-21T23:00:11.907Z,97152.44
2023-04-21T23:02:42.655Z,97149.28
2023-04-21T23:05:12.084Z,97148.22
2023-04-21T23:07:40.913Z,97152.19
2023-04-21T23:10:10.198Z,97158.53
2023-04-21T23:12:39.147Z,97154.84
2023-04-21T23:15:08.467Z,97153.78
2023-04-21T23:17:37.970Z,97164.63
2023-04-21T23:20:07.487Z,97161.19
2023-04-21T23:22:36.263Z,97166.25
2023-04-21T23:25:05.409Z,97168.38
2023-04-21T23:27:34.413Z,97161.50
2023-04-21T23:30:03.443Z,97172.63
2023-04-21T23:32:33.548Z,97173.44
2023-04-21T23:35:02.570Z,97164.16
2023-04-21T23:37:32.312Z,97174.78
2023-04-21T23:40:01.911Z,97175.84
2023-04-21T23:42:32.661Z,97176.41
2023-04-21T23:45:02.689Z,97177.22
2023-04-21T23:47:33.089Z,97181.47
2023-04-21T23:50:02.081Z,97179.63
2023-04-21T23:52:32.559Z,97178.03
2023-04-21T23:55:01.812Z,97193.94
2023-04-21T23:57:32.910Z,97178.81
